createdAt,value
2018-08-09T00:00:44.865Z,98350.64
2018-08-09T00:03:13.549Z,98354.63
2018-08-09T00:05:43.019Z,98355.86
2018-08-09T00:08:11.539Z,98355.98
2018-08-09T00:10:40.067Z,98349.13
2018-08-09T00:13:08.579Z,98347.05
2018-08-09T00:15:37.113Z,98354.91
2018-08-09T00:18:05.680Z,98351.05
2018-08-09T00:20:34.144Z,98343.61
2018-08-09T00:23:02.577Z,98351.19
2018-08-09T00:25:31.005Z,98360.25
2018-08-09T00:27:59.640Z,98357.89
2018-08-09T00:30:28.171Z,98351.11
2018-08-09T00:32:56.681Z,98346.08
2018-08-09T00:35:25.197Z,98340.24
2018-08-09T00:37:53.633Z,98337.95
2018-08-09T00:40:22.097Z,98337.03
2018-08-09T00:42:50.621Z,98331.85
2018-08-09T00:45:19.083Z,98339.47
2018-08-09T00:47:47.549Z,98347.04
2018-08-09T00:50:16.353Z,98357.84
2018-08-09T00:52:44.848Z,98344.88
2018-08-09T00:55:13.669Z,98338.48
2018-08-09T00:57:42.082Z,98341.48
2018-08-09T01:00:10.598Z,98336.20
2018-08-09T01:02:39.061Z,98333.66
2018-08-09T01:05:07.665Z,98333.00
2018-08-09T01:07:36.113Z,98344.61
2018-08-09T01:10:05.117Z,98351.07
2018-08-09T01:12:33.993Z,98358.34
2018-08-09T01:15:02.426Z,98358.52
2018-08-09T01:17:30.893Z,98350.97
2018-08-09T01:19:59.378Z,98357.61
2018-08-09T01:22:27.842Z,98361.05
2018-08-09T01:24:56.481Z,98360.67
2018-08-09T01:27:25.006Z,98360.33
2018-08-09T01:29:53.489Z,98368.39
2018-08-09T01:32:21.949Z,98376.00
2018-08-09T01:34:50.386Z,98379.48
2018-08-09T01:37:18.805Z,98379.03
2018-08-09T01:39:47.233Z,98366.02
2018-08-09T01:42:27.001Z,98363.48
2018-08-09T01:44:55.457Z,98347.77
2018-08-09T01:47:23.903Z,98339.52
2018-08-09T01:49:52.415Z,98343.86
2018-08-09T01:52:20.918Z,98354.60
2018-08-09T01:54:49.570Z,98357.58
2018-08-09T01:57:18.045Z,98368.13
2018-08-09T01:59:46.553Z,98377.14
2018-08-09T02:02:15.570Z,98380.69
2018-08-09T02:04:44.080Z,98378.70
2018-08-09T02:07:12.479Z,98377.42
2018-08-09T02:09:41.041Z,98376.41
2018-08-09T02:12:09.545Z,98379.51
2018-08-09T02:14:38.041Z,98374.26
2018-08-09T02:17:06.890Z,98373.43
2018-08-09T02:19:35.385Z,98375.48
2018-08-09T02:22:03.946Z,98375.73
2018-08-09T02:24:32.358Z,98387.51
2018-08-09T02:27:00.866Z,98383.61
2018-08-09T02:29:29.304Z,98376.27
2018-08-09T02:31:57.914Z,98368.54
2018-08-09T02:34:26.365Z,98360.16
2018-08-09T02:36:54.890Z,98359.78
2018-08-09T02:39:23.682Z,98368.25
2018-08-09T02:41:52.158Z,98372.92
2018-08-09T02:44:20.544Z,98364.13
2018-08-09T02:46:50.067Z,98359.78
2018-08-09T02:49:18.445Z,98356.78
2018-08-09T02:51:46.878Z,98360.72
2018-08-09T02:54:15.802Z,98363.26
2018-08-09T02:56:44.263Z,98362.63
2018-08-09T02:59:13.673Z,98367.27
2018-08-09T03:01:42.101Z,98368.63
2018-08-09T03:04:10.765Z,98366.52
2018-08-09T03:06:39.206Z,98356.44
2018-08-09T03:09:10.829Z,98343.58
2018-08-09T03:11:39.270Z,98343.86
2018-08-09T03:14:07.703Z,98346.00
2018-08-09T03:16:36.152Z,98346.42
2018-08-09T03:19:04.638Z,98345.17
2018-08-09T03:21:33.091Z,98343.50
2018-08-09T03:24:01.533Z,98346.14
2018-08-09T03:26:30.065Z,98334.56
2018-08-09T03:28:58.514Z,98326.73
2018-08-09T03:34:00.777Z,98325.58
2018-08-09T03:36:29.326Z,98329.26
2018-08-09T03:38:57.800Z,98328.88
2018-08-09T03:41:26.307Z,98324.18
2018-08-09T03:43:55.639Z,98314.03
2018-08-09T03:46:24.145Z,98302.83
2018-08-09T03:48:52.693Z,98303.56
2018-08-09T03:51:21.205Z,98300.64
2018-08-09T03:53:49.653Z,98301.82
2018-08-09T03:56:18.189Z,98297.41
2018-08-09T03:58:46.685Z,98297.41
2018-08-09T04:01:15.127Z,98290.97
2018-08-09T04:03:43.605Z,98292.58
2018-08-09T04:06:12.146Z,98292.80
2018-08-09T04:08:40.702Z,98290.52
2018-08-09T04:11:09.140Z,98290.91
2018-08-09T04:13:37.717Z,98292.05
2018-08-09T04:16:06.601Z,98296.73
2018-08-09T04:18:35.106Z,98297.88
2018-08-09T04:21:03.601Z,98299.72
2018-08-09T04:23:32.094Z,98297.95
2018-08-09T04:26:00.474Z,98294.97
2018-08-09T04:28:29.008Z,98298.52
2018-08-09T04:30:57.544Z,98303.80
2018-08-09T04:33:26.022Z,98294.48
2018-08-09T04:35:54.465Z,98289.59
2018-08-09T04:38:22.989Z,98290.67
2018-08-09T04:40:51.429Z,98284.80
2018-08-09T04:43:19.982Z,98281.43
2018-08-09T04:45:48.485Z,98277.36
2018-08-09T04:48:16.997Z,98279.86
2018-08-09T04:50:45.461Z,98279.05
2018-08-09T04:53:14.433Z,98280.95
2018-08-09T04:55:42.937Z,98282.05
2018-08-09T04:58:11.432Z,98283.80
2018-08-09T05:00:39.858Z,98284.98
2018-08-09T05:03:08.293Z,98281.10
2018-08-09T05:05:36.761Z,98266.64
2018-08-09T05:08:05.306Z,98269.44
2018-08-09T05:10:33.729Z,98263.73
2018-08-09T05:13:02.286Z,98264.95
2018-08-09T05:15:30.699Z,98260.83
2018-08-09T05:17:59.186Z,98251.89
2018-08-09T05:20:27.661Z,98248.50
2018-08-09T05:22:56.173Z,98244.33
2018-08-09T05:25:24.610Z,98237.10
2018-08-09T05:27:53.145Z,98231.03
2018-08-09T05:30:21.613Z,98230.56
2018-08-09T05:32:50.101Z,98225.73
2018-08-09T05:35:18.566Z,98228.08
2018-08-09T05:37:47.072Z,98230.51
2018-08-09T05:40:15.977Z,98229.91
2018-08-09T05:42:44.406Z,98233.09
2018-08-09T05:45:12.919Z,98230.61
2018-08-09T05:47:41.356Z,98239.56
2018-08-09T05:50:09.889Z,98234.24
2018-08-09T05:52:38.514Z,98237.61
2018-08-09T05:55:07.513Z,98234.81
2018-08-09T05:57:36.005Z,98236.81
2018-08-09T06:00:05.350Z,98233.98
2018-08-09T06:02:33.786Z,98239.27
2018-08-09T06:05:02.277Z,98245.42
2018-08-09T06:07:30.781Z,98251.62
2018-08-09T06:09:59.342Z,98246.63
2018-08-09T06:12:27.833Z,98242.23
2018-08-09T06:14:56.345Z,98234.95
2018-08-09T06:17:24.838Z,98226.38
2018-08-09T06:19:53.305Z,98217.08
2018-08-09T06:22:21.782Z,98219.38
2018-08-09T06:24:50.287Z,98215.91
2018-08-09T06:27:18.734Z,98212.76
2018-08-09T06:29:47.189Z,98210.57
2018-08-09T06:32:16.234Z,98203.30
2018-08-09T06:34:44.710Z,98200.67
2018-08-09T06:37:13.472Z,98202.00
2018-08-09T06:39:41.945Z,98202.31
2018-08-09T06:42:10.462Z,98200.27
2018-08-09T06:44:38.878Z,98188.72
2018-08-09T06:47:07.321Z,98194.13
2018-08-09T06:49:35.769Z,98190.94
2018-08-09T06:52:04.383Z,98195.31
2018-08-09T06:54:32.852Z,98205.38
2018-08-09T06:57:01.289Z,98210.42
2018-08-09T06:59:29.721Z,98213.77
2018-08-09T07:01:58.164Z,98219.53
2018-08-09T07:04:26.661Z,98223.55
2018-08-09T07:06:55.367Z,98221.62
2018-08-09T07:09:23.878Z,98213.37
2018-08-09T07:11:52.358Z,98214.67
2018-08-09T07:14:20.757Z,98218.08
2018-08-09T07:16:49.281Z,98212.38
2018-08-09T07:19:17.762Z,98206.02
2018-08-09T07:21:46.269Z,98206.05
2018-08-09T07:24:14.993Z,98204.41
2018-08-09T07:26:43.503Z,98191.78
2018-08-09T07:29:11.978Z,98186.48
2018-08-09T07:31:40.479Z,98181.54
2018-08-09T07:34:08.930Z,98184.52
2018-08-09T07:36:37.481Z,98193.41
2018-08-09T07:39:08.011Z,98190.85
2018-08-09T07:41:37.045Z,98189.18
2018-08-09T07:44:05.533Z,98194.48
2018-08-09T07:46:34.046Z,98193.13
2018-08-09T07:49:02.829Z,98189.93
2018-08-09T07:51:31.373Z,98192.63
2018-08-09T07:53:59.894Z,98196.95
2018-08-09T07:56:28.389Z,98200.75
2018-08-09T07:58:56.842Z,98206.05
2018-08-09T08:01:25.509Z,98212.09
2018-08-09T08:03:54.066Z,98214.83
2018-08-09T08:06:22.599Z,98207.50
2018-08-09T08:08:51.230Z,98211.39
2018-08-09T08:11:19.665Z,98206.86
2018-08-09T08:13:48.066Z,98207.80
2018-08-09T08:16:17.657Z,98206.28
2018-08-09T08:18:46.138Z,98214.02
2018-08-09T08:21:15.159Z,98204.08
2018-08-09T08:23:43.716Z,98201.38
2018-08-09T08:26:12.245Z,98191.42
2018-08-09T08:28:40.769Z,98197.22
2018-08-09T08:31:09.293Z,98203.06
2018-08-09T08:33:37.841Z,98198.29
2018-08-09T08:36:06.346Z,98202.45
2018-08-09T08:38:34.809Z,98201.55
2018-08-09T08:41:03.341Z,98191.48
2018-08-09T08:43:31.773Z,98187.75
2018-08-09T08:46:00.472Z,98188.55
2018-08-09T08:48:29.437Z,98195.61
2018-08-09T08:50:57.929Z,98184.34
2018-08-09T08:53:26.502Z,98181.95
2018-08-09T08:55:54.993Z,98186.95
2018-08-09T08:58:23.481Z,98189.20
2018-08-09T09:00:52.010Z,98179.17
2018-08-09T09:03:20.486Z,98176.95
2018-08-09T09:05:48.910Z,98171.34
2018-08-09T09:08:17.353Z,98163.05
2018-08-09T09:10:45.873Z,98167.78
2018-08-09T09:13:14.781Z,98159.05
2018-08-09T09:15:43.426Z,98159.89
2018-08-09T09:18:12.025Z,98156.94
2018-08-09T09:20:40.518Z,98160.09
2018-08-09T09:23:09.012Z,98157.75
2018-08-09T09:25:37.491Z,98158.13
2018-08-09T09:28:06.193Z,98146.38
2018-08-09T09:30:34.669Z,98147.40
2018-08-09T09:33:03.667Z,98148.55
2018-08-09T09:35:32.166Z,98144.34
2018-08-09T09:38:00.629Z,98142.34
2018-08-09T09:40:29.104Z,98138.23
2018-08-09T09:42:57.581Z,98134.05
2018-08-09T09:45:26.098Z,98135.23
2018-08-09T09:47:54.525Z,98139.08
2018-08-09T09:50:23.069Z,98137.17
2018-08-09T09:52:51.493Z,98118.17
2018-08-09T09:55:20.020Z,98127.02
2018-08-09T09:57:48.385Z,98142.02
2018-08-09T10:00:22.425Z,98154.20
2018-08-09T10:02:50.829Z,98171.95
2018-08-09T10:05:19.262Z,98185.59
2018-08-09T10:07:47.686Z,98193.41
2018-08-09T10:10:16.532Z,98195.73
2018-08-09T10:12:45.009Z,98192.92
2018-08-09T10:15:14.330Z,98196.59
2018-08-09T10:17:42.757Z,98191.98
2018-08-09T10:20:11.264Z,98189.72
2018-08-09T10:22:39.717Z,98184.28
2018-08-09T10:25:08.724Z,98193.78
2018-08-09T10:27:37.781Z,98199.91
2018-08-09T10:30:07.201Z,98201.14
2018-08-09T10:32:35.711Z,98205.15
2018-08-09T10:35:04.225Z,98201.98
2018-08-09T10:37:33.138Z,98211.99
2018-08-09T10:40:01.609Z,98217.24
2018-08-09T10:42:30.088Z,98199.75
2018-08-09T10:44:58.527Z,98195.28
2018-08-09T10:47:26.989Z,98200.73
2018-08-09T10:49:55.506Z,98197.88
2018-08-09T10:52:23.914Z,98195.17
2018-08-09T10:54:52.364Z,98195.61
2018-08-09T10:57:20.845Z,98190.55
2018-08-09T10:59:49.401Z,98191.97
2018-08-09T11:02:17.867Z,98188.02
2018-08-09T11:04:46.380Z,98191.98
2018-08-09T11:07:15.180Z,98203.30
2018-08-09T11:09:43.673Z,98197.49
2018-08-09T11:12:12.269Z,98210.77
2018-08-09T11:14:40.677Z,98259.10
2018-08-09T11:17:09.193Z,98259.23
2018-08-09T11:19:37.669Z,98260.61
2018-08-09T11:22:06.166Z,98275.87
2018-08-09T11:24:34.641Z,98281.66
2018-08-09T11:27:03.142Z,98290.94
2018-08-09T11:29:31.570Z,98319.84
2018-08-09T11:32:00.282Z,98345.23
2018-08-09T11:34:28.765Z,98357.59
2018-08-09T11:36:57.261Z,98374.51
2018-08-09T11:39:25.700Z,98356.23
2018-08-09T11:41:54.218Z,98380.55
2018-08-09T11:44:22.669Z,98405.65
2018-08-09T11:46:51.158Z,98418.67
2018-08-09T11:49:19.607Z,98436.86
2018-08-09T11:51:48.026Z,98444.55
2018-08-09T11:54:16.936Z,98413.73
2018-08-09T11:56:45.523Z,98415.32
2018-08-09T11:59:14.353Z,98425.61
2018-08-09T12:01:42.832Z,98451.98
2018-08-09T12:04:11.225Z,98468.28
2018-08-09T12:06:39.727Z,98445.81
2018-08-09T12:09:09.726Z,98447.45
2018-08-09T12:11:46.322Z,98453.84
2018-08-09T12:14:15.433Z,98451.73
2018-08-09T12:16:43.973Z,98452.53
2018-08-09T12:19:12.410Z,98453.19
2018-08-09T12:21:40.865Z,98453.31
2018-08-09T12:24:09.357Z,98461.74
2018-08-09T12:26:37.888Z,98477.06
2018-08-09T12:29:06.474Z,98464.13
2018-08-09T12:31:35.113Z,98473.31
2018-08-09T12:34:03.612Z,98473.76
2018-08-09T12:36:32.102Z,98470.63
2018-08-09T12:39:00.795Z,98474.30
2018-08-09T12:41:29.273Z,98475.38
2018-08-09T12:43:57.754Z,98485.02
2018-08-09T12:46:26.253Z,98469.67
2018-08-09T12:48:54.709Z,98463.30
2018-08-09T12:51:23.157Z,98461.53
2018-08-09T12:53:51.679Z,98451.58
2018-08-09T12:56:20.154Z,98452.57
2018-08-09T12:58:48.641Z,98453.73
2018-08-09T13:01:17.225Z,98456.86
2018-08-09T13:03:45.828Z,98459.44
2018-08-09T13:06:14.883Z,98455.11
2018-08-09T13:08:43.361Z,98451.00
2018-08-09T13:11:11.863Z,98452.48
2018-08-09T13:13:40.342Z,98461.41
2018-08-09T13:16:08.841Z,98452.77
2018-08-09T13:18:37.301Z,98451.47
2018-08-09T13:21:05.793Z,98451.80
2018-08-09T13:23:34.278Z,98456.86
2018-08-09T13:26:02.778Z,98451.72
2018-08-09T13:28:33.025Z,98457.20
2018-08-09T13:31:01.532Z,98458.16
2018-08-09T13:33:30.393Z,98460.97
2018-08-09T13:35:58.902Z,98471.18
2018-08-09T13:38:27.389Z,98466.39
2018-08-09T13:40:55.837Z,98463.05
2018-08-09T13:43:24.386Z,98458.66
2018-08-09T13:45:52.961Z,98463.17
2018-08-09T13:48:21.450Z,98476.73
2018-08-09T13:50:49.981Z,98474.53
2018-08-09T13:53:18.438Z,98484.48
2018-08-09T13:55:46.857Z,98489.77
2018-08-09T13:58:15.922Z,98494.28
2018-08-09T14:00:44.547Z,98494.84
2018-08-09T14:03:13.111Z,98504.14
2018-08-09T14:05:41.693Z,98503.07
2018-08-09T14:08:10.289Z,98509.06
2018-08-09T14:10:38.867Z,98521.69
2018-08-09T14:13:07.325Z,98517.77
2018-08-09T14:15:35.953Z,98534.88
2018-08-09T14:18:04.589Z,98543.70
2018-08-09T14:20:33.009Z,98545.09
2018-08-09T14:23:01.693Z,98542.87
2018-08-09T14:25:30.225Z,98550.67
2018-08-09T14:27:58.957Z,98550.27
2018-08-09T14:30:27.457Z,98546.88
2018-08-09T14:32:56.125Z,98551.86
2018-08-09T14:35:24.690Z,98556.34
2018-08-09T14:37:53.245Z,98556.91
2018-08-09T14:40:21.941Z,98555.19
2018-08-09T14:42:50.397Z,98561.45
2018-08-09T14:45:18.931Z,98554.91
2018-08-09T14:47:47.486Z,98568.59
2018-08-09T14:50:16.456Z,98563.36
2018-08-09T14:52:44.955Z,98560.22
2018-08-09T14:55:14.019Z,98550.60
2018-08-09T14:57:42.907Z,98529.09
2018-08-09T15:00:14.662Z,98525.70
2018-08-09T15:02:43.906Z,98514.50
2018-08-09T15:05:12.525Z,98497.34
2018-08-09T15:07:41.756Z,98494.45
2018-08-09T15:10:10.354Z,98482.28
2018-08-09T15:12:38.865Z,98473.12
2018-08-09T15:15:09.440Z,98467.08
2018-08-09T15:17:38.120Z,98471.28
2018-08-09T15:20:08.758Z,98468.78
2018-08-09T15:22:37.520Z,98463.95
2018-08-09T15:25:07.088Z,98449.82
2018-08-09T15:27:35.737Z,98445.64
2018-08-09T15:30:05.735Z,98443.05
2018-08-09T15:32:34.257Z,98432.54
2018-08-09T15:35:02.725Z,98431.72
2018-08-09T15:37:31.337Z,98433.85
2018-08-09T15:39:59.843Z,98435.73
2018-08-09T15:42:28.774Z,98442.49
2018-08-09T15:44:57.213Z,98445.45
2018-08-09T15:47:25.857Z,98448.67
2018-08-09T15:49:54.241Z,98446.86
2018-08-09T15:52:22.955Z,98443.83
2018-08-09T15:54:51.425Z,98446.69
2018-08-09T15:57:19.960Z,98462.95
2018-08-09T15:59:48.649Z,98466.47
2018-08-09T16:02:17.335Z,98464.51
2018-08-09T16:04:45.978Z,98471.12
2018-08-09T16:07:14.946Z,98465.58
2018-08-09T16:09:43.561Z,98474.45
2018-08-09T16:12:12.046Z,98476.18
2018-08-09T16:14:40.572Z,98468.97
2018-08-09T16:17:09.355Z,98476.11
2018-08-09T16:19:37.979Z,98483.34
2018-08-09T16:22:06.786Z,98486.30
2018-08-09T16:24:35.425Z,98495.86
2018-08-09T16:27:03.973Z,98498.27
2018-08-09T16:29:32.516Z,98505.47
2018-08-09T16:32:01.270Z,98516.98
2018-08-09T16:34:29.748Z,98524.75
2018-08-09T16:36:58.397Z,98528.00
2018-08-09T16:39:26.831Z,98530.15
2018-08-09T16:41:55.426Z,98536.23
2018-08-09T16:44:23.874Z,98540.90
2018-08-09T16:46:52.684Z,98547.34
2018-08-09T16:49:21.169Z,98553.09
2018-08-09T16:51:49.834Z,98542.14
2018-08-09T16:54:18.266Z,98539.81
2018-08-09T16:56:46.786Z,98536.98
2018-08-09T16:59:15.847Z,98537.82
2018-08-09T17:01:45.320Z,98532.05
2018-08-09T17:04:14.270Z,98539.39
2018-08-09T17:06:42.813Z,98546.64
2018-08-09T17:09:13.770Z,98541.61
2018-08-09T17:11:44.034Z,98551.95
2018-08-09T17:14:15.582Z,98560.88
2018-08-09T17:16:44.581Z,98571.75
2018-08-09T17:19:13.120Z,98585.48
2018-08-09T17:21:41.631Z,98582.38
2018-08-09T17:24:11.145Z,98585.72
2018-08-09T17:26:39.937Z,98583.95
2018-08-09T17:29:09.857Z,98590.56
2018-08-09T17:31:38.453Z,98597.44
2018-08-09T17:34:07.499Z,98598.93
2018-08-09T17:36:36.053Z,98610.48
2018-08-09T17:39:07.647Z,98611.95
2018-08-09T17:41:36.317Z,98623.84
2018-08-09T17:44:05.446Z,98627.06
2018-08-09T17:46:34.014Z,98634.83
2018-08-09T17:49:02.582Z,98638.59
2018-08-09T17:51:31.162Z,98639.42
2018-08-09T17:53:59.845Z,98643.00
2018-08-09T17:56:28.390Z,98653.27
2018-08-09T17:58:57.274Z,98655.67
2018-08-09T18:01:25.821Z,98659.54
2018-08-09T18:03:54.594Z,98657.67
2018-08-09T18:06:23.110Z,98652.64
2018-08-09T18:08:51.970Z,98667.11
2018-08-09T18:11:20.411Z,98661.02
2018-08-09T18:13:49.022Z,98667.72
2018-08-09T18:16:17.757Z,98668.37
2018-08-09T18:18:46.188Z,98678.64
2018-08-09T18:21:15.200Z,98680.30
2018-08-09T18:23:43.661Z,98680.00
2018-08-09T18:26:12.497Z,98676.93
2018-08-09T18:28:41.189Z,98681.10
2018-08-09T18:31:10.015Z,98679.55
2018-08-09T18:33:38.574Z,98682.16
2018-08-09T18:36:07.258Z,98682.05
2018-08-09T18:38:35.769Z,98680.98
2018-08-09T18:41:04.358Z,98677.23
2018-08-09T18:43:32.858Z,98675.42
2018-08-09T18:46:01.341Z,98670.57
2018-08-09T18:48:30.130Z,98674.88
2018-08-09T18:50:58.542Z,98687.98
2018-08-09T18:53:27.254Z,98686.94
2018-08-09T18:55:55.733Z,98695.76
2018-08-09T18:58:24.322Z,98695.86
2018-08-09T19:00:52.798Z,98694.69
2018-08-09T19:03:21.634Z,98709.57
2018-08-09T19:05:50.121Z,98712.19
2018-08-09T19:08:18.559Z,98711.24
2018-08-09T19:10:47.029Z,98726.81
2018-08-09T19:13:16.125Z,98723.44
2018-08-09T19:15:44.740Z,98727.94
2018-08-09T19:18:13.249Z,98734.23
2018-08-09T19:20:41.933Z,98739.56
2018-08-09T19:23:10.476Z,98746.98
2018-08-09T19:25:39.046Z,98752.31
2018-08-09T19:28:07.510Z,98751.02
2018-08-09T19:30:36.074Z,98750.44
2018-08-09T19:33:04.677Z,98738.52
2018-08-09T19:35:33.256Z,98750.73
2018-08-09T19:38:02.066Z,98749.95
2018-08-09T19:40:31.050Z,98760.21
2018-08-09T19:42:59.967Z,98763.28
2018-08-09T19:45:28.501Z,98767.55
2018-08-09T19:47:57.174Z,98767.89
2018-08-09T19:50:26.041Z,98769.13
2018-08-09T19:52:54.704Z,98773.53
2018-08-09T19:55:24.577Z,98769.75
2018-08-09T19:57:53.401Z,98776.66
2018-08-09T20:00:25.275Z,98781.89
2018-08-09T20:02:53.801Z,98780.41
2018-08-09T20:05:22.583Z,98786.60
2018-08-09T20:07:51.165Z,98786.27
2018-08-09T20:10:19.822Z,98789.33
2018-08-09T20:12:48.892Z,98791.71
2018-08-09T20:15:19.237Z,98797.44
2018-08-09T20:17:47.769Z,98794.19
2018-08-09T20:20:18.324Z,98798.36
2018-08-09T20:22:46.941Z,98793.50
2018-08-09T20:25:16.241Z,98793.69
2018-08-09T20:27:45.239Z,98795.32
2018-08-09T20:30:16.001Z,98795.32
2018-08-09T20:32:45.623Z,98794.88
2018-08-09T20:35:19.785Z,98803.42
2018-08-09T20:37:49.074Z,98802.46
2018-08-09T20:40:18.439Z,98800.78
2018-08-09T20:42:48.049Z,98789.64
2018-08-09T20:45:18.389Z,98804.23
2018-08-09T20:47:47.148Z,98802.42
2018-08-09T20:50:18.209Z,98804.86
2018-08-09T20:52:47.450Z,98807.58
2018-08-09T20:55:16.909Z,98812.69
2018-08-09T20:57:46.234Z,98808.55
2018-08-09T21:00:17.865Z,98807.88
2018-08-09T21:02:47.911Z,98816.67
2018-08-09T21:05:18.717Z,98823.82
2018-08-09T21:07:47.517Z,98825.89
2018-08-09T21:10:16.645Z,98832.83
2018-08-09T21:12:45.333Z,98840.39
2018-08-09T21:15:14.224Z,98845.13
2018-08-09T21:17:43.318Z,98848.88
2018-08-09T21:20:12.909Z,98849.39
2018-08-09T21:22:41.359Z,98861.11
2018-08-09T21:25:10.589Z,98866.73
2018-08-09T21:27:39.208Z,98869.16
2018-08-09T21:30:09.593Z,98884.84
2018-08-09T21:32:38.046Z,98897.44
2018-08-09T21:35:07.353Z,98917.25
2018-08-09T21:37:35.772Z,98930.75
2018-08-09T21:40:05.222Z,98940.17
2018-08-09T21:42:33.685Z,98977.31
2018-08-09T21:45:02.267Z,98985.41
2018-08-09T21:47:30.768Z,98980.06
2018-08-09T21:49:59.402Z,98987.16
2018-08-09T21:52:27.983Z,98980.02
2018-08-09T21:54:56.407Z,98993.20
2018-08-09T21:57:25.280Z,98994.22
2018-08-09T21:59:53.852Z,98994.51
2018-08-09T22:02:22.790Z,98995.53
2018-08-09T22:04:56.619Z,99004.67
2018-08-09T22:07:30.450Z,99006.20
2018-08-09T22:10:04.217Z,99014.50
2018-08-09T22:12:38.167Z,99028.59
2018-08-09T22:15:12.175Z,99023.84
2018-08-09T22:17:46.122Z,99033.52
2018-08-09T22:20:19.842Z,99036.89
2018-08-09T22:22:48.365Z,99048.89
2018-08-09T22:25:17.106Z,99051.77
2018-08-09T22:27:45.638Z,99045.30
2018-08-09T22:30:15.770Z,99049.02
2018-08-09T22:32:44.273Z,99050.70
2018-08-09T22:35:12.855Z,99053.08
2018-08-09T22:37:41.419Z,99063.57
2018-08-09T22:40:10.150Z,99062.88
2018-08-09T22:42:38.642Z,99068.81
2018-08-09T22:45:07.178Z,99074.08
2018-08-09T22:47:35.625Z,99075.09
2018-08-09T22:50:04.129Z,99082.22
2018-08-09T22:52:32.557Z,99079.13
2018-08-09T22:55:01.090Z,99076.42
2018-08-09T22:57:29.586Z,99075.78
2018-08-09T22:59:58.104Z,99080.17
2018-08-09T23:02:26.739Z,99083.70
2018-08-09T23:04:55.169Z,99093.69
2018-08-09T23:07:23.708Z,99101.30
2018-08-09T23:09:52.145Z,99101.63
2018-08-09T23:12:20.670Z,99105.52
2018-08-09T23:14:49.098Z,99101.97
2018-08-09T23:17:17.844Z,99100.40
2018-08-09T23:19:46.316Z,99115.29
2018-08-09T23:22:18.969Z,99110.34
2018-08-09T23:24:47.477Z,99110.86
2018-08-09T23:27:16.241Z,99123.41
2018-08-09T23:29:44.688Z,99118.33
2018-08-09T23:32:13.137Z,99123.41
2018-08-09T23:34:41.698Z,99135.59
2018-08-09T23:37:10.150Z,99140.31
2018-08-09T23:39:38.622Z,99145.53
2018-08-09T23:42:07.181Z,99151.50
2018-08-09T23:44:35.664Z,99152.12
2018-08-09T23:47:04.158Z,99148.25
2018-08-09T23:49:33.098Z,99148.05
2018-08-09T23:52:01.566Z,99145.67
2018-08-09T23:54:30.058Z,99146.30
2018-08-09T23:56:58.510Z,99142.23
2018-08-09T23:59:27.022Z,99143.59
